This is the latest recevied weather packets stored in our database for station/object K8JCL-13. If no packets are shown the sender has not sent any weather packets the latest 10 day(s).
| Time | Temp. | Humidity | Pressure | Rain* | Wind** | Luminosity | Snow |
|---|---|---|---|---|---|---|---|
| 1776887946 | 26.67° C | 53% | 1015.2 hPa | 0 mm | - | 183 W/m² | - |
| 1776887641 | 26.11° C | 54% | 1015.3 hPa | 0 mm | - | 391 W/m² | - |
| 1776887339 | 25.56° C | 56% | 1015.2 hPa | 0 mm | - | 502 W/m² | - |
| 1776887036 | 25.56° C | 54% | 1015.5 hPa | 0 mm | - | 510 W/m² | - |
| 1776886733 | 26.11° C | 56% | 1015.7 hPa | 0 mm | - | 524 W/m² | - |
| 1776886429 | 25.56° C | 56% | 1015.8 hPa | 0 mm | - | 539 W/m² | - |
| 1776886126 | 25.56° C | 57% | 1015.8 hPa | 0 mm | - | 137 W/m² | - |
| 1776885824 | 26.11° C | 54% | 1015.6 hPa | 0 mm | - | 137 W/m² | - |
| 1776885520 | 25.56° C | 57% | 1015.7 hPa | 0 mm | - | 544 W/m² | - |
| 1776885216 | 25.56° C | 54% | 1015.9 hPa | 0 mm | - | 564 W/m² | - |
| 1776884914 | 25.56° C | 58% | 1015.8 hPa | 0 mm | - | 621 W/m² | - |
| 1776884611 | 25.56° C | 59% | 1015.9 hPa | 0 mm | - | 262 W/m² | - |
| 1776884308 | 25.56° C | 58% | 1016.2 hPa | 0 mm | - | 583 W/m² | - |
| 1776884005 | 26.67° C | 57% | 1016.2 hPa | 0 mm | - | 632 W/m² | - |
| 1776883702 | 26.11° C | 59% | 1016 hPa | 0 mm | - | 634 W/m² | - |
| 1776883400 | 25.56° C | 59% | 1016.2 hPa | 0 mm | - | 633 W/m² | - |
| 1776883096 | 26.11° C | 56% | 1016.3 hPa | 0 mm | - | 621 W/m² | - |
| 1776882794 | 25.56° C | 60% | 1016.3 hPa | 0 mm | - | 628 W/m² | - |
| 1776882490 | 26.11° C | 58% | 1016.3 hPa | 0 mm | - | 649 W/m² | - |
| 1776882188 | 25.56° C | 61% | 1016.6 hPa | 0 mm | - | 651 W/m² | - |
| 1776881884 | 25.56° C | 59% | 1016.4 hPa | 0 mm | - | 614 W/m² | - |
| 1776881581 | 25° C | 62% | 1016.3 hPa | 0 mm | - | 658 W/m² | - |
| 1776881276 | 24.44° C | 64% | 1016.4 hPa | 0 mm | - | 669 W/m² | - |
| 1776880973 | 24.44° C | 61% | 1016.4 hPa | 0 mm | - | 492 W/m² | - |
| 1776880670 | 25.56° C | 61% | 1016.7 hPa | 0 mm | - | 632 W/m² | - |
* Rain latest hour (hover to see other rain measurements)
** Current wind speed in m/s (hover to see current wind gust speed)